Date,TemperatureHighF,TemperatureAvgF,TemperatureLowF,DewpointHighF,DewpointAvgF,DewpointLowF,HumidityHigh,HumidityAvg,HumidityLow,PressureMaxIn,PressureMinIn,WindSpeedMaxMPH,WindSpeedAvgMPH,GustSpeedMaxMPH,PrecipitationSumIn
2012-1-1,76,72,64,62,60,58,83,68,56,30.24,30.15,4,0,7,0.00
2012-1-2,77,67,55,64,58,42,91,74,55,30.18,30.03,8,2,21,0.00
2012-1-3,54,50,43,43,30,14,70,49,22,30.34,30.15,12,4,24,0.00
2012-1-4,65,52,42,52,37,21,69,55,43,30.37,30.24,6,3,14,0.00
2012-1-5,67,57,49,45,32,8,73,43,10,30.29,30.18,6,2,13,0.00
2012-1-6,68,59,50,57,50,41,83,71,56,30.22,30.13,3,1,7,0.00
2012-1-7,73,64,54,57,54,49,85,69,53,30.19,30.10,3,0,9,0.00
2012-1-8,75,67,57,59,56,53,89,71,52,30.22,30.14,2,0,9,0.00
2012-1-9,76,72,70,63,61,58,74,67,60,30.19,30.09,4,1,10,0.00
2012-1-10,76,72,65,62,60,58,83,67,56,30.10,29.97,4,1,10,0.00
2012-1-11,74,71,65,67,64,60,87,80,72,29.99,29.80,10,3,20,0.00
2012-1-12,75,71,66,67,64,61,92,80,66,29.98,29.84,5,1,12,0.00
2012-1-13,70,68,64,64,60,54,85,76,67,30.14,29.97,6,1,11,0.00
2012-1-14,64,58,53,55,44,32,75,60,42,30.32,30.14,8,4,17,0.00
2012-1-15,67,59,48,51,39,25,62,50,26,30.41,30.31,7,3,15,0.00
2012-1-16,71,66,58,58,52,42,72,61,54,30.40,30.30,4,1,13,0.00
2012-1-17,75,70,65,61,58,52,82,67,57,30.30,30.15,6,2,15,0.00
2012-1-18,78,69,61,64,60,57,88,75,52,30.15,29.99,4,0,8,0.00
2012-1-19,72,68,63,61,57,52,88,69,55,30.12,29.98,6,2,13,0.00
2012-1-20,75,69,61,60,56,52,80,62,52,30.18,30.09,3,1,12,0.00
2012-1-21,75,71,67,64,59,55,80,67,59,30.15,30.04,5,2,12,0.00
2012-1-22,77,70,62,65,60,56,86,72,57,30.12,30.05,4,1,8,0.00
2012-1-23,77,73,71,66,64,62,79,74,68,30.12,30.06,5,2,12,0.00
2012-1-24,77,74,71,66,65,64,80,76,67,30.16,30.07,4,1,9,0.00
2012-1-25,78,74,72,67,65,64,80,75,69,30.17,30.07,4,2,15,0.00
2012-1-26,78,74,72,68,66,65,81,77,67,30.11,29.99,8,4,15,0.01
2012-1-27,81,76,73,71,68,64,84,78,57,30.06,29.94,8,4,17,0.01
2012-1-28,77,72,68,69,66,64,90,81,71,30.14,30.03,3,1,9,0.10
2012-1-29,74,70,68,67,64,61,91,80,70,30.23,30.09,4,2,12,0.26
2012-1-30,75,71,69,62,59,57,72,66,59,30.29,30.18,4,2,15,0.16
2012-1-31,75,72,69,64,62,59,75,71,66,30.30,30.21,3,1,13,0.00
2012-2-1,77,73,71,66,64,62,79,73,65,30.23,30.13,3,1,9,0.00
2012-2-2,78,74,70,67,66,64,87,78,69,30.15,30.06,4,2,10,0.00
2012-2-3,76,73,71,67,65,62,83,75,72,30.18,30.09,4,1,12,0.02
2012-2-4,76,73,72,68,66,63,84,77,73,30.15,30.05,6,2,15,0.01
2012-2-5,77,74,73,69,68,66,83,80,74,30.05,29.97,4,2,10,0.01
2012-2-6,77,74,70,69,68,65,90,82,75,30.06,29.96,6,2,16,0.68
2012-2-7,77,73,70,71,69,67,93,86,77,30.01,29.92,5,2,15,0.45
2012-2-8,74,70,68,68,66,63,94,87,77,30.04,29.96,4,1,9,0.01
2012-2-9,76,71,66,68,66,62,94,84,75,30.08,29.98,5,2,16,0.56
2012-2-10,78,73,70,72,69,67,94,89,82,30.05,29.89,6,3,15,1.07
2012-2-11,71,66,55,68,59,46,94,80,63,30.06,29.86,10,4,19,0.30
2012-2-12,60,53,47,46,41,32,78,64,47,30.25,30.06,10,5,19,0.01
2012-2-13,67,58,47,52,47,41,87,68,50,30.22,30.12,4,2,13,0.00
2012-2-14,74,69,65,60,57,50,71,65,58,30.14,30.06,4,2,11,0.00
2012-2-15,77,72,69,64,62,60,78,70,62,30.20,30.09,4,2,9,0.00
2012-2-16,77,73,71,66,64,63,80,75,69,30.18,30.06,4,2,12,0.00
2012-2-17,78,72,66,68,65,63,92,80,68,30.09,29.98,6,2,14,0.00
2012-2-18,78,72,66,68,66,63,91,80,68,30.01,29.90,7,2,17,0.00
2012-2-19,84,77,72,71,69,66,89,77,58,29.96,29.84,12,4,21,0.00
2012-2-20,73,67,61,68,58,55,84,73,58,30.14,29.91,7,3,16,0.00
2012-2-21,74,70,65,60,57,54,77,64,57,30.19,30.11,3,1,10,0.00
2012-2-22,76,71,64,65,62,58,85,73,64,30.12,29.95,8,3,14,0.00
2012-2-23,78,73,65,71,67,62,92,82,71,29.99,29.91,9,3,17,0.00
2012-2-24,79,75,69,72,70,67,94,86,76,30.03,29.95,9,4,19,0.01
2012-2-25,79,73,70,71,68,63,95,84,71,30.17,30.00,6,2,16,0.01
2012-2-26,77,73,69,69,67,64,91,82,75,30.23,30.15,5,2,13,0.03
2012-2-27,79,76,73,70,69,67,84,79,73,30.27,30.18,5,2,12,0.01
2012-2-28,80,76,73,70,68,67,83,78,70,30.23,30.16,3,0,9,0.00
2012-2-29,79,76,73,70,68,66,82,78,71,30.20,30.10,5,2,11,0.00
2012-3-1,79,76,73,70,68,67,84,79,72,30.12,30.01,9,4,17,0.00
2012-3-2,80,76,74,70,68,66,84,77,69,30.05,29.97,10,5,17,0.00
2012-3-3,80,77,75,72,70,67,87,79,73,29.98,29.86,9,6,20,0.00
2012-3-4,82,70,59,72,58,32,87,67,37,30.17,29.83,15,8,28,0.02
2012-3-5,72,64,54,57,47,32,63,55,37,30.31,30.16,8,3,17,0.01
2012-3-6,75,70,67,62,57,49,76,62,51,30.35,30.25,5,3,22,0.00
2012-3-7,74,72,69,67,64,61,89,77,71,30.32,30.23,4,2,15,0.43
2012-3-8,77,73,70,70,67,66,90,81,72,30.24,30.14,6,3,16,0.59
2012-3-9,79,75,73,70,68,66,84,78,70,30.18,30.09,6,2,12,0.02
2012-3-10,80,74,69,70,67,65,90,79,66,30.17,30.07,5,1,13,0.00
2012-3-11,79,75,72,68,64,-100,79,73,65,30.24,30.14,5,2,13,0.00
2012-3-12,76,73,70,65,63,58,82,71,60,30.27,30.17,3,1,13,0.01
2012-3-13,78,74,71,64,62,60,74,68,59,30.22,30.14,3,1,9,0.01
2012-3-14,79,74,72,66,63,61,79,69,59,30.19,30.09,5,2,13,0.00
2012-3-15,76,73,69,67,66,64,90,78,73,30.19,30.09,4,2,12,0.78
2012-3-16,79,74,69,67,65,63,88,75,62,30.20,30.10,4,1,11,0.02
2012-3-17,79,74,71,65,63,62,77,69,59,30.20,30.11,4,1,11,0.00
2012-3-18,80,74,71,66,63,59,75,69,61,30.20,30.11,2,0,8,0.01
2012-3-19,79,75,72,66,63,60,80,67,56,30.15,30.05,2,1,9,0.01
2012-3-20,79,74,72,66,63,-100,77,70,61,30.09,30.00,4,2,14,0.00
2012-3-21,80,76,74,68,67,66,81,75,67,30.13,30.02,6,4,16,0.00
2012-3-22,80,76,74,68,66,-100,81,73,61,30.15,30.06,5,-5,14,0.00
2012-3-23,79,75,72,66,64,62,77,68,59,30.11,30.02,4,1,11,0.00
2012-3-24,79,75,69,66,64,62,84,70,60,30.04,29.93,6,3,13,0.00
2012-3-25,83,76,70,68,65,62,85,71,52,29.97,29.80,10,4,20,0.00
2012-3-26,82,72,64,64,57,52,79,60,36,29.98,29.87,6,3,14,0.00
2012-3-27,79,74,68,66,63,59,85,70,60,30.14,29.96,3,1,12,0.14
2012-3-28,78,74,70,67,62,58,86,66,60,30.15,30.06,4,2,14,0.04
2012-3-29,77,73,71,62,61,59,72,66,58,30.08,29.98,4,2,12,0.04
2012-3-30,78,73,67,63,60,58,81,64,56,30.07,29.97,6,2,12,0.00
2012-3-31,79,75,72,71,66,60,86,74,63,30.01,29.87,11,4,20,0.05
2012-4-1,83,76,70,70,67,59,93,76,45,29.94,29.84,7,2,13,0.01
2012-4-2,82,76,68,71,68,64,89,76,60,29.91,29.83,5,2,12,0.00
2012-4-3,83,76,68,71,67,62,85,74,64,29.96,29.88,4,1,10,0.00
2012-4-4,81,77,71,70,68,67,89,76,64,29.97,29.83,8,4,21,0.00
2012-4-5,87,78,70,70,66,60,86,68,40,29.88,29.72,10,4,24,0.00
2012-4-6,85,78,72,73,69,61,89,74,54,29.88,29.73,12,4,19,0.25
2012-4-7,79,74,68,66,64,60,86,72,59,30.09,29.87,6,3,15,0.24
2012-4-8,76,72,70,61,59,57,70,62,54,30.14,30.06,4,1,11,0.00
2012-4-9,78,73,66,62,60,57,80,64,54,30.08,29.99,4,1,10,0.00
2012-4-10,79,74,67,62,60,57,81,62,49,30.07,29.98,3,1,8,0.00
2012-4-11,80,74,68,66,62,59,81,67,50,30.05,29.95,7,2,12,0.00
2012-4-12,83,74,66,65,62,57,81,65,44,30.03,29.94,5,2,10,0.00
2012-4-13,79,74,67,69,66,63,90,76,67,30.09,29.98,7,1,20,1.40
2012-4-14,78,74,68,68,64,61,92,73,61,30.20,30.06,10,3,20,1.67
2012-4-15,79,74,71,64,60,-100,68,62,51,30.19,30.12,6,3,15,0.19
2012-4-16,78,75,73,64,61,56,69,61,52,30.19,30.09,7,3,18,0.02
2012-4-17,80,76,72,65,61,57,70,60,47,30.16,30.05,5,2,11,0.01
2012-4-18,80,76,73,67,64,63,77,69,61,30.09,29.96,7,3,14,0.00
2012-4-19,80,76,74,68,67,65,79,73,65,30.00,29.89,7,4,16,0.00
2012-4-20,-200,0,200,-100,-100,-100,0,0,100,29.94,29.83,0,-999,0,0.00
2012-4-21,76,39,70,70,-10,-100,87,44,77,29.91,29.67,11,-458,26,0.08
2012-4-22,83,75,67,71,65,-100,91,74,49,29.73,29.55,12,5,21,0.27
2012-4-23,80,71,63,63,54,44,79,58,34,29.91,29.72,9,4,20,0.01
2012-4-24,73,66,58,52,45,32,70,49,22,30.02,29.89,9,3,19,0.00
2012-4-25,76,68,58,58,52,44,71,56,45,30.11,30.01,4,2,13,0.00
2012-4-26,78,73,64,62,60,56,81,64,54,30.14,30.05,5,1,12,0.00
2012-4-27,80,76,72,70,66,60,85,71,64,30.11,30.03,3,0,10,0.04
2012-4-28,77,75,70,72,70,66,91,84,75,30.07,30.01,5,2,13,0.27
2012-4-29,75,72,71,71,68,-100,93,88,79,30.06,29.98,6,2,19,2.22
2012-4-30,74,73,71,70,69,67,92,87,82,30.03,29.96,8,3,21,0.62
2012-5-1,79,76,74,72,70,67,84,79,76,30.06,29.98,7,4,22,0.15
2012-5-2,81,77,74,72,70,68,84,78,69,30.09,29.99,7,3,15,0.00
2012-5-3,81,77,74,71,69,67,81,76,70,30.09,30.01,6,3,16,0.00
2012-5-4,81,77,74,69,67,66,81,73,61,30.09,29.99,5,2,11,0.00
2012-5-5,82,78,74,70,68,66,80,73,64,30.02,29.94,5,3,12,0.00
2012-5-6,83,77,73,72,69,-100,88,77,63,29.98,29.88,7,3,16,0.00
2012-5-7,83,78,73,72,70,63,89,78,66,29.93,29.83,9,3,17,0.00
2012-5-8,82,75,71,72,69,63,91,80,70,29.91,29.85,12,2,30,0.70
2012-5-9,83,76,71,74,70,68,93,83,68,29.90,29.79,11,2,21,1.44
2012-5-10,87,78,73,75,71,69,92,81,56,29.88,29.77,13,2,21,0.94
2012-5-11,84,78,71,75,72,69,93,82,68,30.06,29.86,4,1,9,0.59
2012-5-12,82,79,77,72,70,68,83,76,65,30.14,30.03,4,2,16,0.00
2012-5-13,83,78,76,71,68,-100,77,73,64,30.10,30.00,5,2,14,0.00
2012-5-14,84,80,77,74,72,69,82,77,70,30.04,29.93,5,2,11,0.01
2012-5-15,84,79,72,75,73,68,91,82,72,30.00,29.93,7,2,16,0.35
2012-5-16,77,74,72,73,71,69,93,91,85,30.01,29.94,2,0,5,0.35
2012-5-17,79,78,76,73,71,69,83,79,77,29.92,29.85,6,2,11,0.51
2012-5-18,83,76,69,75,70,65,91,82,71,29.93,29.85,5,1,30,0.81
2012-5-19,82,75,72,74,71,69,94,89,75,29.96,29.86,18,1,23,0.66
2012-5-20,83,76,71,73,70,-100,94,83,70,29.96,29.87,5,1,9,0.19
2012-5-21,84,77,71,73,71,69,94,81,66,29.97,29.90,5,1,10,0.34
2012-5-22,82,77,74,73,71,69,90,83,71,29.96,29.90,9,2,19,0.12
2012-5-23,82,78,75,74,72,70,89,82,75,29.92,29.84,8,4,19,0.12
2012-5-24,80,76,74,73,71,68,93,85,77,29.88,29.79,7,2,23,0.78
2012-5-25,83,78,72,76,72,69,93,83,74,30.01,29.86,4,1,8,0.01
2012-5-26,84,80,75,75,73,71,91,80,71,30.01,29.94,2,0,10,0.00
2012-5-27,84,78,71,75,71,-100,92,82,65,29.96,29.83,10,2,21,0.72
2012-5-28,84,80,75,76,73,70,91,81,74,29.96,29.88,8,3,19,0.72
2012-5-29,84,80,74,77,74,70,89,82,73,29.97,29.88,9,3,21,0.28
2012-5-30,88,81,74,76,74,69,93,80,60,29.94,29.82,9,2,18,0.21
2012-5-31,82,79,76,75,73,71,88,83,73,29.94,29.85,6,2,12,0.05
2012-6-1,81,76,72,75,73,70,95,91,81,29.98,29.87,9,2,23,2.79
2012-6-2,89,82,75,76,73,69,92,77,61,29.97,29.88,6,2,13,0.21
2012-6-3,88,80,74,75,70,-100,91,74,56,30.02,29.93,6,1,12,0.01
2012-6-4,90,84,79,76,72,68,89,70,53,29.99,29.86,9,2,17,0.00
2012-6-5,91,84,79,76,73,69,89,72,53,29.88,29.81,8,1,14,0.00
2012-6-6,85,82,76,77,75,69,88,81,69,29.95,29.86,8,3,21,0.11
2012-6-7,89,84,80,78,76,72,90,78,59,29.96,29.90,8,3,16,0.05
2012-6-8,87,81,75,79,75,71,91,81,68,29.97,29.87,7,2,15,0.43
2012-6-9,87,82,77,78,76,73,91,83,73,30.01,29.90,4,1,10,0.06
2012-6-10,88,83,80,78,75,-100,87,79,70,30.10,29.97,5,1,12,0.01
2012-6-11,86,82,80,74,72,69,81,71,59,30.10,30.01,5,1,10,0.00
2012-6-12,85,81,77,70,69,67,74,67,59,30.07,29.95,3,0,9,0.00
2012-6-13,87,81,74,73,70,67,85,71,58,29.98,29.88,5,2,11,0.00
2012-6-14,91,83,75,77,73,68,86,74,51,30.00,29.88,10,2,21,0.41
2012-6-15,88,80,74,77,73,68,89,80,66,30.01,29.90,12,1,25,0.77
2012-6-16,86,81,75,74,71,67,87,73,63,30.01,29.91,5,2,16,0.05
2012-6-17,85,80,78,70,66,-100,75,64,54,30.02,29.91,3,2,11,0.05
2012-6-18,86,81,78,70,68,65,73,64,55,30.01,29.92,2,1,12,0.00
2012-6-19,83,81,78,74,71,68,87,74,68,30.01,29.94,4,2,17,0.04
2012-6-20,81,77,74,74,73,70,93,86,76,30.00,29.91,9,3,22,1.28
2012-6-21,81,33,77,75,-28,-100,84,34,75,29.98,29.86,5,-581,13,0.01
2012-6-22,-200,0,200,-100,-100,-100,0,0,100,29.94,29.82,0,-999,0,0.00
2012-6-23,-200,0,200,-100,-100,-100,0,0,100,29.99,29.85,0,-999,0,0.00
2012-6-24,-200,0,200,-100,-100,-100,0,0,100,29.97,29.85,0,-999,0,0.00
2012-6-25,-200,0,200,-100,-100,-100,0,0,100,29.86,29.76,0,-999,0,0.00
2012-6-26,-200,0,200,-100,-100,-100,0,0,100,29.78,29.71,0,-999,0,0.00
2012-6-27,-200,0,200,-100,-100,-100,0,0,100,29.97,29.76,0,-999,0,0.00
2012-6-28,-200,0,200,-100,-100,-100,0,0,100,30.05,29.97,0,-999,0,0.00
2012-6-29,-200,0,200,-100,-100,-100,0,0,100,30.04,29.93,0,-999,0,0.00
2012-6-30,-200,0,200,-100,-100,-100,0,0,100,30.00,29.91,0,-999,0,0.00
2012-7-1,-200,0,200,-100,-100,-100,0,0,100,30.07,29.97,0,-999,0,0.00
2012-7-2,-200,0,200,-100,-100,-100,0,0,100,30.10,29.98,0,-999,0,0.00
2012-7-3,-200,0,200,-100,-100,-100,0,0,100,30.06,29.98,0,-999,0,0.00
2012-7-4,-200,0,200,-100,-100,-100,0,0,100,30.08,29.99,0,-999,0,0.00
2012-7-5,-200,0,200,-100,-100,-100,0,0,100,30.04,29.97,0,-999,0,0.00
2012-7-6,-200,0,200,-100,-100,-100,0,0,100,30.04,29.98,0,-999,0,0.00
2012-7-7,-200,0,200,-100,-100,-100,0,0,100,30.07,30.00,0,-999,0,0.00
2012-7-8,-200,0,200,-100,-100,-100,0,0,100,30.06,30.00,0,-999,0,0.00
2012-7-9,-200,0,200,-100,-100,-100,0,0,100,30.05,29.95,0,-999,0,0.00
2012-7-10,-200,0,200,-100,-100,-100,0,0,100,30.03,29.92,0,-999,0,0.00
2012-7-11,-200,0,200,-100,-100,-100,0,0,100,30.06,29.94,0,-999,0,0.00
2012-7-12,-200,0,200,-100,-100,-100,0,0,100,30.03,29.95,0,-999,0,0.00
2012-7-13,-200,0,200,-100,-100,-100,0,0,100,30.04,29.96,0,-999,0,0.00
2012-7-14,-200,0,200,-100,-100,-100,0,0,100,30.06,29.96,0,-999,0,0.00
2012-7-15,-200,0,200,-100,-100,-100,0,0,100,30.11,30.01,0,-999,0,0.00
2012-7-16,-200,0,200,-100,-100,-100,0,0,100,30.09,29.97,0,-999,0,0.00
2012-7-17,-200,0,200,-100,-100,-100,0,0,100,30.04,29.96,0,-999,0,0.00
2012-7-18,-200,0,200,-100,-100,-100,0,0,100,30.12,29.98,0,-999,0,0.00
2012-7-19,-200,0,200,-100,-100,-100,0,0,100,30.17,30.08,0,-999,0,0.00
2012-7-20,-200,0,200,-100,-100,-100,0,0,100,30.12,30.03,0,-999,0,0.00
2012-7-21,-200,0,200,-100,-100,-100,0,0,100,30.09,30.01,0,-999,0,0.00
2012-7-22,-200,0,200,-100,-100,-100,0,0,100,30.14,30.01,0,-999,0,0.00
2012-7-23,-200,0,200,-100,-100,-100,0,0,100,30.15,30.08,0,-999,0,0.00
2012-7-24,-200,0,200,-100,-100,-100,0,0,100,30.12,30.02,0,-999,0,0.00
2012-7-25,-200,0,200,-100,-100,-100,0,0,100,30.04,29.98,0,-999,0,0.00
2012-7-26,-200,0,200,-100,-100,-100,0,0,100,30.04,29.97,0,-999,0,0.00
2012-7-27,-200,0,200,-100,-100,-100,0,0,100,30.09,29.98,0,-999,0,0.00
2012-7-28,-200,0,200,-100,-100,-100,0,0,100,30.11,30.03,0,-999,0,0.00
2012-7-29,-200,0,200,-100,-100,-100,0,0,100,30.08,29.99,0,-999,0,0.00
2012-7-30,89,24,75,75,-52,-100,72,19,52,30.05,29.97,4,-715,14,0.00
2012-7-31,90,84,78,76,74,71,86,72,61,30.04,29.96,7,2,13,0.00
2012-8-1,90,84,80,77,75,74,83,75,61,30.01,29.93,5,2,13,0.06
2012-8-2,90,85,80,78,76,75,87,76,66,29.98,29.91,4,1,10,0.06
2012-8-3,89,82,76,80,76,73,93,81,72,30.02,29.90,7,0,17,0.97
2012-8-4,88,82,77,78,75,73,92,80,69,30.03,29.92,7,1,14,0.04
2012-8-5,90,85,81,79,76,73,83,77,67,30.07,29.99,5,2,13,0.03
2012-8-6,85,82,78,78,76,73,90,82,74,30.05,29.97,13,2,21,0.12
2012-8-7,89,85,82,78,76,73,84,76,67,30.02,29.95,7,2,13,0.01
2012-8-8,89,85,82,78,76,73,83,76,65,30.03,29.95,4,1,10,0.03
2012-8-9,90,85,81,78,76,74,83,76,67,30.02,29.91,7,2,15,0.03
2012-8-10,85,82,80,76,74,72,83,77,71,29.98,29.91,6,2,13,0.00
2012-8-11,87,80,76,77,74,71,87,82,72,30.03,29.92,10,1,17,0.21
2012-8-12,89,82,78,77,75,72,91,81,67,30.04,29.96,5,1,12,0.05
2012-8-13,89,83,78,79,77,75,92,82,71,30.05,29.98,4,0,10,0.02
2012-8-14,89,85,81,78,76,73,85,75,64,30.04,29.94,6,2,12,0.00
2012-8-15,88,84,82,78,76,75,82,77,70,30.03,29.96,5,3,13,0.00
2012-8-16,89,84,80,78,77,75,87,79,69,30.06,29.98,4,1,9,0.00
2012-8-17,89,82,74,77,75,70,90,80,63,30.03,29.93,10,2,20,0.21
2012-8-18,89,81,76,78,75,73,92,82,64,29.99,29.91,7,2,14,2.15
2012-8-19,89,84,79,78,76,74,88,78,69,29.99,29.91,10,4,20,0.03
2012-8-20,89,84,80,79,76,73,86,76,68,30.01,29.90,10,3,18,0.01
2012-8-21,89,84,78,78,75,72,85,75,64,30.06,29.98,6,2,19,0.00
2012-8-22,90,83,77,79,75,70,85,76,68,30.07,30.01,6,2,13,0.00
2012-8-23,89,84,79,78,75,70,87,74,63,30.06,29.99,5,1,10,0.00
2012-8-24,87,83,76,77,74,68,89,76,67,30.00,29.88,8,2,23,0.18
2012-8-25,84,80,74,79,75,71,92,84,70,29.96,29.85,6,3,14,0.54
2012-8-26,84,80,77,78,76,73,94,88,77,29.86,29.67,15,6,32,4.55
2012-8-27,85,81,77,79,77,73,93,87,77,29.94,29.72,20,10,34,4.17
2012-8-28,87,83,79,80,77,74,91,84,76,29.99,29.91,9,6,21,0.07
2012-8-29,87,83,81,78,76,74,86,80,72,29.99,29.91,6,3,13,0.05
2012-8-30,88,84,80,78,76,74,85,78,70,30.09,29.95,5,2,10,0.00
2012-8-31,88,84,81,77,76,75,86,78,68,30.13,30.04,3,0,8,0.00
2012-9-1,88,83,79,78,76,74,89,79,72,30.10,30.00,5,2,11,0.00
2012-9-2,86,83,79,76,74,72,84,76,68,30.03,29.96,4,1,10,0.01
2012-9-3,86,83,80,76,73,70,82,74,66,30.03,29.95,5,1,12,0.01
2012-9-4,87,82,76,76,73,69,89,76,67,30.03,29.93,6,2,12,0.04
2012-9-5,87,79,74,76,72,69,89,80,70,30.00,29.91,5,2,17,0.15
2012-9-6,87,81,76,78,74,65,89,79,61,30.02,29.94,5,1,11,0.04
2012-9-7,87,82,77,77,74,71,89,79,68,29.99,29.90,7,1,11,0.00
2012-9-8,88,83,78,77,75,72,86,76,66,29.97,29.87,9,3,16,0.00
2012-9-9,93,85,79,76,73,69,83,69,46,29.97,29.88,10,3,15,0.00
2012-9-10,91,84,79,77,75,72,89,76,54,29.98,29.91,8,1,17,0.00
2012-9-11,88,82,78,79,76,73,88,80,71,30.04,29.96,3,1,10,0.00
2012-9-12,87,83,78,77,74,72,89,75,65,30.05,29.96,4,2,18,0.54
2012-9-13,83,80,75,77,74,72,92,84,76,30.06,29.95,8,2,15,1.48
2012-9-14,88,82,76,77,75,72,90,78,69,30.01,29.93,5,1,12,0.23
2012-9-15,87,81,75,78,74,71,91,80,70,30.03,29.95,4,1,14,0.36
2012-9-16,85,81,76,76,73,71,88,78,72,30.04,29.94,3,1,11,0.79
2012-9-17,84,79,73,78,74,70,93,83,73,30.01,29.91,8,2,17,1.22
2012-9-18,89,82,77,79,75,72,89,81,66,29.98,29.87,11,3,20,0.49
2012-9-19,87,82,77,77,75,73,90,80,63,30.03,29.91,4,1,9,0.10
2012-9-20,87,83,78,78,76,73,88,79,71,30.02,29.91,3,0,10,0.04
2012-9-21,86,80,73,77,73,70,92,82,71,29.96,29.89,6,1,17,1.98
2012-9-22,80,76,74,75,74,72,94,91,83,30.01,29.89,6,0,12,1.21
2012-9-23,81,76,73,76,73,-100,96,92,84,30.03,29.96,3,0,10,2.42
2012-9-24,85,79,75,75,73,71,95,84,71,30.03,29.96,4,1,11,0.11
2012-9-25,86,80,74,77,72,69,92,79,69,30.05,29.96,6,0,11,0.19
2012-9-26,86,82,80,77,74,72,85,78,73,30.06,29.98,3,0,10,0.02
2012-9-27,87,82,78,78,75,73,88,80,73,30.06,29.96,3,0,7,0.02
2012-9-28,86,81,77,77,75,73,90,80,72,30.01,29.91,3,0,9,0.00
2012-9-29,87,82,77,77,75,73,90,80,70,29.95,29.83,4,1,11,0.00
2012-9-30,86,82,77,76,75,74,91,80,69,29.88,29.78,6,2,13,0.00
2012-10-1,84,79,75,77,75,73,94,86,72,29.86,29.76,11,3,18,2.58
2012-10-2,85,78,74,77,74,72,94,88,76,30.04,29.85,9,3,19,1.88
2012-10-3,87,82,76,79,77,73,93,84,75,30.15,30.02,6,1,12,0.51
2012-10-4,87,84,81,79,77,75,86,81,74,30.15,30.03,4,1,10,0.01
2012-10-5,87,83,81,77,76,75,85,79,69,30.07,29.91,3,1,10,0.00
2012-10-6,86,82,80,76,75,73,85,79,71,29.96,29.83,4,0,8,0.00
2012-10-7,84,79,75,77,74,71,92,84,76,29.95,29.84,4,0,11,0.07
2012-10-8,84,80,72,77,75,70,94,85,77,29.99,29.90,7,0,12,1.71
2012-10-9,86,81,77,78,76,74,94,84,73,30.00,29.92,3,0,7,0.28
2012-10-10,84,81,77,76,74,71,92,81,74,30.04,29.96,5,1,11,0.16
2012-10-11,83,80,74,71,69,68,85,70,62,30.09,30.00,5,3,16,0.15
2012-10-12,83,80,79,69,67,66,72,66,60,30.09,30.01,5,3,15,0.00
2012-10-13,83,79,75,72,69,65,86,71,61,30.08,29.99,6,3,18,0.20
2012-10-14,80,80,79,73,71,66,79,75,65,30.04,29.96,5,3,13,0.14
2012-10-15,84,81,79,74,73,72,80,76,71,29.81,29.76,3,1,10,0.14
2012-10-16,84,79,74,74,72,70,91,79,65,29.82,29.75,4,1,11,0.14
2012-10-17,83,79,72,75,72,69,91,79,72,29.87,29.78,6,2,14,0.08
2012-10-18,85,81,76,76,74,71,87,81,69,29.86,29.78,7,3,17,0.09
2012-10-19,82,79,77,76,74,71,93,85,72,29.88,29.79,6,1,11,0.12
2012-10-20,82,79,76,74,73,70,92,81,69,29.91,29.82,5,1,10,0.04
2012-10-21,83,78,74,72,67,62,87,69,57,29.98,29.86,5,2,12,0.00
2012-10-22,82,79,77,69,66,63,71,65,57,29.99,29.92,5,2,14,0.00
2012-10-23,82,79,77,72,69,64,83,71,63,29.96,29.89,5,2,13,0.00
2012-10-24,83,79,76,73,72,69,86,77,64,29.94,29.81,6,3,16,0.05
2012-10-25,80,78,73,73,71,65,90,80,64,29.82,29.59,10,5,34,0.72
2012-10-26,80,74,70,71,68,66,93,81,64,29.61,29.45,12,7,27,0.80
2012-10-27,82,74,69,67,63,58,84,68,49,29.67,29.47,14,7,32,0.01
2012-10-28,80,73,69,66,62,56,88,70,52,29.76,29.65,8,4,18,0.00
2012-10-29,71,65,59,57,50,42,74,59,36,29.85,29.73,11,4,21,0.00
2012-10-30,71,63,56,52,48,42,75,59,44,29.98,29.81,8,3,16,0.00
2012-10-31,72,65,59,59,54,52,85,69,52,30.05,29.96,5,1,13,0.00
2012-11-1,78,70,62,63,59,56,89,71,51,30.05,29.95,4,1,10,0.00
2012-11-2,79,71,66,66,59,49,92,68,36,30.07,29.98,6,1,10,0.00
2012-11-3,79,70,61,63,57,49,84,65,36,30.12,30.03,5,1,10,0.00
2012-11-4,79,72,65,66,63,60,89,73,55,30.09,29.99,2,0,7,0.00
2012-11-5,78,72,68,64,61,57,86,69,52,30.01,29.91,4,1,8,0.00
2012-11-6,81,73,67,65,61,54,89,68,41,29.93,29.80,10,2,16,0.00
2012-11-7,71,67,61,65,57,50,85,70,56,29.96,29.81,8,4,20,0.00
2012-11-8,67,61,56,51,46,38,77,58,36,30.09,29.95,8,3,17,0.00
2012-11-9,73,66,58,57,53,51,82,64,47,30.18,30.07,5,3,13,0.00
2012-11-10,75,72,70,60,56,53,63,58,51,30.23,30.14,5,1,14,0.00
2012-11-11,79,76,72,67,61,55,81,61,51,30.21,30.14,6,2,21,0.05
2012-11-12,80,76,69,69,67,65,89,75,66,30.18,30.09,8,2,22,0.30
2012-11-13,79,76,74,68,66,64,79,72,63,30.12,30.02,4,1,9,0.01
2012-11-14,79,75,74,69,65,-100,76,71,65,30.09,30.02,2,1,9,0.00
2012-11-15,79,73,66,67,64,62,90,75,59,30.07,30.01,5,1,9,0.05
2012-11-16,75,70,64,67,65,62,92,83,74,30.08,30.00,5,2,11,0.07
2012-11-17,77,72,67,67,65,63,92,79,67,30.07,29.99,4,2,11,0.12
2012-11-18,78,73,68,68,66,64,88,78,68,30.09,29.99,6,3,15,0.06
2012-11-19,72,66,62,64,59,56,87,78,62,30.10,29.98,7,4,13,0.00
2012-11-20,72,65,60,64,60,56,93,85,75,30.01,29.90,6,3,14,0.00
2012-11-21,75,66,59,62,58,53,90,75,54,30.00,29.90,7,4,18,0.00
2012-11-22,73,64,58,57,52,48,77,65,48,30.08,29.97,10,5,19,0.00
2012-11-23,75,65,56,60,55,50,81,70,55,30.11,30.02,6,3,13,0.00
2012-11-24,73,64,56,56,52,48,83,67,43,30.10,29.98,7,2,17,0.00
2012-11-25,75,65,55,59,55,51,87,71,48,30.11,30.03,4,1,8,0.00
2012-11-26,77,70,62,64,60,55,85,72,58,30.17,30.08,4,1,11,0.00
2012-11-27,78,74,71,67,64,61,81,72,66,30.17,30.07,5,2,11,0.00
2012-11-28,78,71,67,66,64,62,90,80,57,30.16,30.07,7,2,15,0.03
2012-11-29,76,71,63,66,64,60,92,77,68,30.19,30.12,5,2,17,0.03
2012-11-30,75,72,68,65,62,59,88,70,58,30.20,30.10,4,2,14,0.15
2012-12-1,76,74,72,65,63,61,75,70,62,30.16,30.09,4,2,12,0.15
2012-12-2,78,74,73,67,65,63,76,72,64,30.20,30.11,4,2,15,0.00
2012-12-3,76,73,71,66,62,54,82,67,53,30.22,30.13,4,2,14,0.05
2012-12-4,76,73,70,65,62,56,79,68,55,30.21,30.12,4,1,13,0.08
2012-12-5,77,74,71,66,64,61,77,70,59,30.12,29.99,5,1,10,0.04
2012-12-6,77,73,71,67,63,-100,85,74,66,29.99,29.88,3,0,9,0.05
2012-12-7,78,75,73,69,67,65,82,78,72,29.96,29.88,6,3,13,0.00
2012-12-8,79,76,74,72,70,67,87,82,75,30.01,29.93,5,2,13,0.00
2012-12-9,81,77,72,74,73,70,93,87,80,30.06,29.97,6,2,14,0.05
2012-12-10,80,78,76,75,74,73,91,88,82,30.01,29.90,9,5,18,0.01
2012-12-11,82,77,71,76,74,68,93,88,80,30.03,29.91,9,4,26,0.44
2012-12-12,80,77,75,74,72,70,89,83,78,30.08,30.00,9,4,19,0.04
2012-12-13,79,73,66,73,69,62,93,86,77,30.08,30.00,6,2,16,0.04
2012-12-14,76,70,63,67,64,61,93,81,65,30.10,30.03,7,2,12,0.03
2012-12-15,76,74,73,67,65,64,77,74,70,30.08,30.00,3,1,10,0.01
2012-12-16,78,75,73,68,67,65,83,76,69,30.03,29.93,6,2,11,0.01
2012-12-17,79,73,67,70,67,64,91,80,65,29.96,29.87,7,2,14,0.01
2012-12-18,82,74,69,69,67,65,93,79,60,29.99,29.89,4,1,11,0.00
2012-12-19,79,72,63,68,64,58,87,75,55,30.07,29.98,4,1,7,0.00
2012-12-20,79,75,72,67,65,62,83,72,58,30.07,29.95,8,3,17,0.00
2012-12-21,73,65,53,68,52,37,91,64,38,30.15,29.94,12,5,25,0.00
2012-12-22,62,54,47,42,32,23,72,45,29,30.23,30.14,9,4,17,0.00
2012-12-23,71,62,51,55,46,34,64,56,48,30.22,30.11,5,1,9,0.00
2012-12-24,75,68,61,60,57,51,78,67,55,30.12,29.98,6,2,15,0.00
2012-12-25,76,70,62,65,61,57,87,74,59,30.03,29.92,7,2,15,0.00
2012-12-26,81,75,65,70,68,60,89,78,63,29.96,29.82,14,6,23,0.06
2012-12-27,69,62,54,60,52,46,87,71,46,30.05,29.96,6,2,16,0.06
2012-12-28,75,69,57,70,63,48,89,81,70,30.05,29.95,7,2,12,0.00
2012-12-29,80,76,65,72,70,56,90,82,73,30.08,29.92,8,4,18,0.00
2012-12-30,68,61,51,57,52,44,83,73,65,30.26,30.08,9,4,19,0.00
2012-12-31,74,70,66,61,58,55,72,67,58,30.28,30.17,6,2,15,0.00
2013-1-1,76,72,68,64,61,57,83,68,61,30.18,30.03,11,3,19,0.00